sensor_id;sensor_type;location;lat;lon;timestamp;P1;durP1;ratioP1;P2;durP2;ratioP2
31716;SDS011;18301;51.076;17.046;2023-05-10T00:00:00;10.57;;;5.82;;
31716;SDS011;18301;51.076;17.046;2023-05-10T00:05:02;12.52;;;6.15;;
31716;SDS011;18301;51.076;17.046;2023-05-10T00:10:03;9.50;;;6.03;;
31716;SDS011;18301;51.076;17.046;2023-05-10T00:15:05;9.80;;;6.13;;
31716;SDS011;18301;51.076;17.046;2023-05-10T00:20:08;9.48;;;5.70;;
31716;SDS011;18301;51.076;17.046;2023-05-10T00:25:10;8.48;;;5.57;;
31716;SDS011;18301;51.076;17.046;2023-05-10T00:30:11;11.85;;;6.38;;
31716;SDS011;18301;51.076;17.046;2023-05-10T00:35:13;9.18;;;6.15;;
31716;SDS011;18301;51.076;17.046;2023-05-10T00:40:15;9.77;;;5.45;;
31716;SDS011;18301;51.076;17.046;2023-05-10T00:45:17;12.50;;;6.05;;
31716;SDS011;18301;51.076;17.046;2023-05-10T00:50:18;11.43;;;6.45;;
31716;SDS011;18301;51.076;17.046;2023-05-10T00:55:20;11.05;;;6.63;;
31716;SDS011;18301;51.076;17.046;2023-05-10T01:00:22;10.23;;;6.40;;
31716;SDS011;18301;51.076;17.046;2023-05-10T01:05:24;10.07;;;6.30;;
31716;SDS011;18301;51.076;17.046;2023-05-10T01:10:26;11.68;;;6.45;;
31716;SDS011;18301;51.076;17.046;2023-05-10T01:15:27;14.20;;;7.28;;
31716;SDS011;18301;51.076;17.046;2023-05-10T01:20:31;10.07;;;6.18;;
31716;SDS011;18301;51.076;17.046;2023-05-10T01:25:43;10.82;;;6.47;;
31716;SDS011;18301;51.076;17.046;2023-05-10T01:36:19;10.45;;;6.65;;
31716;SDS011;18301;51.076;17.046;2023-05-10T01:41:55;12.88;;;6.38;;
31716;SDS011;18301;51.076;17.046;2023-05-10T01:46:58;11.27;;;6.50;;
31716;SDS011;18301;51.076;17.046;2023-05-10T01:52:10;11.05;;;6.25;;
31716;SDS011;18301;51.076;17.046;2023-05-10T01:57:15;10.52;;;6.50;;
31716;SDS011;18301;51.076;17.046;2023-05-10T02:02:20;14.35;;;7.15;;
31716;SDS011;18301;51.076;17.046;2023-05-10T02:07:22;11.70;;;6.32;;
31716;SDS011;18301;51.076;17.046;2023-05-10T02:12:25;12.63;;;6.55;;
31716;SDS011;18301;51.076;17.046;2023-05-10T02:17:28;11.23;;;6.03;;
31716;SDS011;18301;51.076;17.046;2023-05-10T02:22:31;11.85;;;6.25;;
31716;SDS011;18301;51.076;17.046;2023-05-10T02:27:34;17.48;;;6.72;;
31716;SDS011;18301;51.076;17.046;2023-05-10T02:32:37;10.13;;;6.70;;
31716;SDS011;18301;51.076;17.046;2023-05-10T02:37:40;13.38;;;6.93;;
31716;SDS011;18301;51.076;17.046;2023-05-10T02:42:43;10.57;;;6.82;;
31716;SDS011;18301;51.076;17.046;2023-05-10T02:47:48;11.43;;;6.85;;
31716;SDS011;18301;51.076;17.046;2023-05-10T02:52:50;9.00;;;5.72;;
31716;SDS011;18301;51.076;17.046;2023-05-10T02:57:57;10.88;;;6.72;;
31716;SDS011;18301;51.076;17.046;2023-05-10T03:03:01;10.70;;;6.68;;
31716;SDS011;18301;51.076;17.046;2023-05-10T03:08:02;13.13;;;6.97;;
31716;SDS011;18301;51.076;17.046;2023-05-10T03:18:21;10.18;;;6.15;;
31716;SDS011;18301;51.076;17.046;2023-05-10T03:23:30;11.43;;;6.60;;
31716;SDS011;18301;51.076;17.046;2023-05-10T03:28:33;11.37;;;7.10;;
31716;SDS011;18301;51.076;17.046;2023-05-10T03:33:41;10.85;;;6.30;;
31716;SDS011;18301;51.076;17.046;2023-05-10T03:38:47;11.07;;;6.68;;
31716;SDS011;18301;51.076;17.046;2023-05-10T03:43:48;14.48;;;7.13;;
31716;SDS011;18301;51.076;17.046;2023-05-10T03:48:50;12.00;;;7.28;;
31716;SDS011;18301;51.076;17.046;2023-05-10T03:53:51;14.20;;;7.25;;
31716;SDS011;18301;51.076;17.046;2023-05-10T03:58:53;11.32;;;6.63;;
31716;SDS011;18301;51.076;17.046;2023-05-10T04:03:54;11.45;;;6.40;;
31716;SDS011;18301;51.076;17.046;2023-05-10T04:08:56;11.57;;;6.35;;
31716;SDS011;18301;51.076;17.046;2023-05-10T04:14:00;12.30;;;6.78;;
31716;SDS011;18301;51.076;17.046;2023-05-10T04:19:02;13.95;;;7.20;;
31716;SDS011;18301;51.076;17.046;2023-05-10T04:24:04;11.63;;;6.32;;
31716;SDS011;18301;51.076;17.046;2023-05-10T04:29:06;11.85;;;6.15;;
31716;SDS011;18301;51.076;17.046;2023-05-10T04:34:07;13.75;;;6.43;;
31716;SDS011;18301;51.076;17.046;2023-05-10T04:39:09;10.88;;;6.35;;
31716;SDS011;18301;51.076;17.046;2023-05-10T04:44:10;13.18;;;6.65;;
31716;SDS011;18301;51.076;17.046;2023-05-10T04:49:12;11.95;;;6.63;;
31716;SDS011;18301;51.076;17.046;2023-05-10T04:54:14;14.02;;;7.18;;
31716;SDS011;18301;51.076;17.046;2023-05-10T04:59:16;12.45;;;7.35;;
31716;SDS011;18301;51.076;17.046;2023-05-10T05:04:18;11.85;;;6.40;;
31716;SDS011;18301;51.076;17.046;2023-05-10T05:09:19;13.80;;;7.10;;
31716;SDS011;18301;51.076;17.046;2023-05-10T05:14:21;13.75;;;7.03;;
31716;SDS011;18301;51.076;17.046;2023-05-10T05:19:22;15.50;;;7.78;;
31716;SDS011;18301;51.076;17.046;2023-05-10T05:24:24;11.68;;;6.32;;
31716;SDS011;18301;51.076;17.046;2023-05-10T05:29:25;10.82;;;6.20;;
31716;SDS011;18301;51.076;17.046;2023-05-10T05:34:27;10.57;;;6.43;;
31716;SDS011;18301;51.076;17.046;2023-05-10T05:39:28;10.05;;;6.43;;
31716;SDS011;18301;51.076;17.046;2023-05-10T05:44:30;13.02;;;6.85;;
31716;SDS011;18301;51.076;17.046;2023-05-10T05:49:31;12.18;;;6.97;;
31716;SDS011;18301;51.076;17.046;2023-05-10T05:54:33;10.85;;;6.45;;
31716;SDS011;18301;51.076;17.046;2023-05-10T05:59:35;10.70;;;6.53;;
31716;SDS011;18301;51.076;17.046;2023-05-10T06:04:36;10.68;;;6.10;;
31716;SDS011;18301;51.076;17.046;2023-05-10T06:09:38;11.43;;;6.68;;
31716;SDS011;18301;51.076;17.046;2023-05-10T06:14:39;12.18;;;6.35;;
31716;SDS011;18301;51.076;17.046;2023-05-10T06:19:41;10.45;;;6.50;;
31716;SDS011;18301;51.076;17.046;2023-05-10T06:24:42;11.10;;;6.00;;
31716;SDS011;18301;51.076;17.046;2023-05-10T06:29:44;10.43;;;6.13;;
31716;SDS011;18301;51.076;17.046;2023-05-10T06:34:46;11.48;;;6.32;;
31716;SDS011;18301;51.076;17.046;2023-05-10T06:39:47;8.27;;;5.35;;
31716;SDS011;18301;51.076;17.046;2023-05-10T06:44:49;11.05;;;5.93;;
31716;SDS011;18301;51.076;17.046;2023-05-10T06:49:51;7.93;;;4.80;;
31716;SDS011;18301;51.076;17.046;2023-05-10T06:54:52;11.30;;;5.25;;
31716;SDS011;18301;51.076;17.046;2023-05-10T06:59:54;11.88;;;4.90;;
31716;SDS011;18301;51.076;17.046;2023-05-10T07:04:57;11.40;;;4.82;;
31716;SDS011;18301;51.076;17.046;2023-05-10T07:10:03;8.07;;;4.80;;
31716;SDS011;18301;51.076;17.046;2023-05-10T07:15:05;7.72;;;5.10;;
31716;SDS011;18301;51.076;17.046;2023-05-10T07:20:07;7.65;;;5.13;;
31716;SDS011;18301;51.076;17.046;2023-05-10T07:25:09;8.82;;;4.60;;
31716;SDS011;18301;51.076;17.046;2023-05-10T07:30:11;6.88;;;3.85;;
31716;SDS011;18301;51.076;17.046;2023-05-10T07:35:13;8.85;;;4.80;;
31716;SDS011;18301;51.076;17.046;2023-05-10T07:40:15;6.65;;;4.68;;
31716;SDS011;18301;51.076;17.046;2023-05-10T07:45:16;8.02;;;4.72;;
31716;SDS011;18301;51.076;17.046;2023-05-10T07:50:18;7.00;;;4.10;;
31716;SDS011;18301;51.076;17.046;2023-05-10T07:55:20;4.95;;;3.78;;
31716;SDS011;18301;51.076;17.046;2023-05-10T08:00:22;6.15;;;4.38;;
31716;SDS011;18301;51.076;17.046;2023-05-10T08:05:24;6.20;;;4.00;;
31716;SDS011;18301;51.076;17.046;2023-05-10T08:10:25;5.88;;;3.95;;
31716;SDS011;18301;51.076;17.046;2023-05-10T08:15:26;5.38;;;4.00;;
31716;SDS011;18301;51.076;17.046;2023-05-10T08:20:28;5.70;;;4.20;;
31716;SDS011;18301;51.076;17.046;2023-05-10T08:25:29;6.05;;;4.20;;
31716;SDS011;18301;51.076;17.046;2023-05-10T08:30:32;6.85;;;3.90;;
31716;SDS011;18301;51.076;17.046;2023-05-10T08:35:33;6.75;;;3.90;;
31716;SDS011;18301;51.076;17.046;2023-05-10T08:40:42;8.57;;;4.18;;
31716;SDS011;18301;51.076;17.046;2023-05-10T08:45:45;4.07;;;3.45;;
31716;SDS011;18301;51.076;17.046;2023-05-10T08:50:48;4.53;;;3.40;;
31716;SDS011;18301;51.076;17.046;2023-05-10T08:55:52;6.97;;;3.28;;
31716;SDS011;18301;51.076;17.046;2023-05-10T09:00:54;4.28;;;3.55;;
31716;SDS011;18301;51.076;17.046;2023-05-10T09:05:56;4.45;;;3.70;;
31716;SDS011;18301;51.076;17.046;2023-05-10T09:10:58;5.70;;;3.50;;
31716;SDS011;18301;51.076;17.046;2023-05-10T09:16:02;6.95;;;3.67;;
31716;SDS011;18301;51.076;17.046;2023-05-10T09:21:21;5.18;;;3.65;;
31716;SDS011;18301;51.076;17.046;2023-05-10T09:26:23;4.68;;;3.40;;
31716;SDS011;18301;51.076;17.046;2023-05-10T09:31:42;6.55;;;4.05;;
31716;SDS011;18301;51.076;17.046;2023-05-10T09:36:51;3.70;;;3.30;;
31716;SDS011;18301;51.076;17.046;2023-05-10T09:41:57;5.95;;;3.85;;
31716;SDS011;18301;51.076;17.046;2023-05-10T09:47:02;6.28;;;4.13;;
31716;SDS011;18301;51.076;17.046;2023-05-10T09:52:04;5.00;;;4.05;;
31716;SDS011;18301;51.076;17.046;2023-05-10T09:57:07;4.93;;;3.80;;
31716;SDS011;18301;51.076;17.046;2023-05-10T10:02:21;3.53;;;3.20;;
31716;SDS011;18301;51.076;17.046;2023-05-10T10:07:30;3.97;;;3.40;;
31716;SDS011;18301;51.076;17.046;2023-05-10T10:12:32;5.75;;;3.25;;
31716;SDS011;18301;51.076;17.046;2023-05-10T10:17:34;4.03;;;3.17;;
31716;SDS011;18301;51.076;17.046;2023-05-10T10:22:37;4.95;;;3.20;;
31716;SDS011;18301;51.076;17.046;2023-05-10T10:27:48;4.10;;;3.13;;
31716;SDS011;18301;51.076;17.046;2023-05-10T10:43:42;3.53;;;2.97;;
31716;SDS011;18301;51.076;17.046;2023-05-10T10:48:48;5.43;;;3.67;;
31716;SDS011;18301;51.076;17.046;2023-05-10T10:53:52;7.78;;;3.13;;
31716;SDS011;18301;51.076;17.046;2023-05-10T10:58:58;4.72;;;2.80;;
31716;SDS011;18301;51.076;17.046;2023-05-10T11:09:06;5.03;;;3.08;;
31716;SDS011;18301;51.076;17.046;2023-05-10T11:14:09;4.75;;;3.50;;
31716;SDS011;18301;51.076;17.046;2023-05-10T11:19:11;6.43;;;3.20;;
31716;SDS011;18301;51.076;17.046;2023-05-10T11:24:18;4.88;;;3.10;;
31716;SDS011;18301;51.076;17.046;2023-05-10T11:29:22;4.50;;;2.58;;
31716;SDS011;18301;51.076;17.046;2023-05-10T11:34:30;3.38;;;2.80;;
31716;SDS011;18301;51.076;17.046;2023-05-10T11:39:35;3.97;;;2.75;;
31716;SDS011;18301;51.076;17.046;2023-05-10T11:44:36;4.20;;;2.40;;
31716;SDS011;18301;51.076;17.046;2023-05-10T11:49:38;4.72;;;2.97;;
31716;SDS011;18301;51.076;17.046;2023-05-10T11:55:13;3.47;;;2.80;;
31716;SDS011;18301;51.076;17.046;2023-05-10T12:00:07;5.18;;;2.47;;
31716;SDS011;18301;51.076;17.046;2023-05-10T12:05:09;4.90;;;2.60;;
31716;SDS011;18301;51.076;17.046;2023-05-10T12:10:12;11.85;;;3.10;;
31716;SDS011;18301;51.076;17.046;2023-05-10T12:15:19;4.20;;;2.55;;
31716;SDS011;18301;51.076;17.046;2023-05-10T12:20:26;5.75;;;2.47;;
31716;SDS011;18301;51.076;17.046;2023-05-10T12:25:32;10.35;;;2.65;;
31716;SDS011;18301;51.076;17.046;2023-05-10T12:30:35;3.72;;;2.28;;
31716;SDS011;18301;51.076;17.046;2023-05-10T12:35:47;2.70;;;2.50;;
31716;SDS011;18301;51.076;17.046;2023-05-10T12:40:50;3.53;;;2.28;;
31716;SDS011;18301;51.076;17.046;2023-05-10T12:45:52;6.68;;;2.80;;
31716;SDS011;18301;51.076;17.046;2023-05-10T12:50:54;3.45;;;2.10;;
31716;SDS011;18301;51.076;17.046;2023-05-10T12:55:55;2.75;;;2.42;;
31716;SDS011;18301;51.076;17.046;2023-05-10T13:00:57;3.22;;;2.22;;
31716;SDS011;18301;51.076;17.046;2023-05-10T13:06:00;5.25;;;2.53;;
31716;SDS011;18301;51.076;17.046;2023-05-10T13:11:02;4.75;;;2.70;;
31716;SDS011;18301;51.076;17.046;2023-05-10T13:16:04;3.67;;;2.03;;
31716;SDS011;18301;51.076;17.046;2023-05-10T13:21:05;3.80;;;2.20;;
31716;SDS011;18301;51.076;17.046;2023-05-10T13:26:08;4.97;;;2.22;;
31716;SDS011;18301;51.076;17.046;2023-05-10T13:31:09;2.55;;;2.15;;
31716;SDS011;18301;51.076;17.046;2023-05-10T13:36:11;3.28;;;2.60;;
31716;SDS011;18301;51.076;17.046;2023-05-10T13:41:12;2.42;;;2.08;;
31716;SDS011;18301;51.076;17.046;2023-05-10T13:46:14;2.88;;;2.20;;
31716;SDS011;18301;51.076;17.046;2023-05-10T13:51:16;2.80;;;2.30;;
31716;SDS011;18301;51.076;17.046;2023-05-10T13:56:17;2.60;;;2.00;;
31716;SDS011;18301;51.076;17.046;2023-05-10T14:01:19;2.92;;;1.92;;
31716;SDS011;18301;51.076;17.046;2023-05-10T14:06:21;2.42;;;2.17;;
31716;SDS011;18301;51.076;17.046;2023-05-10T14:11:22;4.30;;;2.20;;
31716;SDS011;18301;51.076;17.046;2023-05-10T14:16:25;2.25;;;1.80;;
31716;SDS011;18301;51.076;17.046;2023-05-10T14:21:27;2.28;;;2.00;;
31716;SDS011;18301;51.076;17.046;2023-05-10T14:26:30;3.00;;;1.92;;
31716;SDS011;18301;51.076;17.046;2023-05-10T14:31:32;2.47;;;2.22;;
31716;SDS011;18301;51.076;17.046;2023-05-10T14:36:34;5.13;;;2.10;;
31716;SDS011;18301;51.076;17.046;2023-05-10T14:41:35;2.75;;;2.08;;
31716;SDS011;18301;51.076;17.046;2023-05-10T14:46:37;2.72;;;2.00;;
31716;SDS011;18301;51.076;17.046;2023-05-10T14:51:38;3.22;;;2.20;;
31716;SDS011;18301;51.076;17.046;2023-05-10T14:56:40;3.22;;;2.20;;
31716;SDS011;18301;51.076;17.046;2023-05-10T15:01:42;2.80;;;2.17;;
31716;SDS011;18301;51.076;17.046;2023-05-10T15:06:44;2.80;;;1.77;;
31716;SDS011;18301;51.076;17.046;2023-05-10T15:11:46;3.22;;;2.30;;
31716;SDS011;18301;51.076;17.046;2023-05-10T15:16:47;2.50;;;1.90;;
31716;SDS011;18301;51.076;17.046;2023-05-10T15:21:49;2.08;;;1.80;;
31716;SDS011;18301;51.076;17.046;2023-05-10T15:26:50;2.22;;;2.03;;
31716;SDS011;18301;51.076;17.046;2023-05-10T15:31:52;2.03;;;1.70;;
31716;SDS011;18301;51.076;17.046;2023-05-10T15:36:53;2.22;;;1.85;;
31716;SDS011;18301;51.076;17.046;2023-05-10T15:41:55;3.60;;;2.00;;
31716;SDS011;18301;51.076;17.046;2023-05-10T15:46:57;2.85;;;2.00;;
31716;SDS011;18301;51.076;17.046;2023-05-10T15:51:58;2.17;;;1.95;;
31716;SDS011;18301;51.076;17.046;2023-05-10T15:57:00;3.20;;;2.05;;
31716;SDS011;18301;51.076;17.046;2023-05-10T16:02:02;2.65;;;2.08;;
31716;SDS011;18301;51.076;17.046;2023-05-10T16:07:04;3.58;;;1.90;;
31716;SDS011;18301;51.076;17.046;2023-05-10T16:12:06;2.38;;;2.00;;
31716;SDS011;18301;51.076;17.046;2023-05-10T16:17:08;2.67;;;1.92;;
31716;SDS011;18301;51.076;17.046;2023-05-10T16:22:10;2.53;;;2.30;;
31716;SDS011;18301;51.076;17.046;2023-05-10T16:27:11;3.78;;;2.00;;
31716;SDS011;18301;51.076;17.046;2023-05-10T16:32:13;4.00;;;2.28;;
31716;SDS011;18301;51.076;17.046;2023-05-10T16:37:15;2.53;;;2.08;;
31716;SDS011;18301;51.076;17.046;2023-05-10T16:42:16;2.10;;;1.90;;
31716;SDS011;18301;51.076;17.046;2023-05-10T16:47:18;2.70;;;2.10;;
31716;SDS011;18301;51.076;17.046;2023-05-10T16:52:19;4.28;;;2.30;;
31716;SDS011;18301;51.076;17.046;2023-05-10T16:57:21;2.60;;;2.25;;
31716;SDS011;18301;51.076;17.046;2023-05-10T17:02:23;7.05;;;2.35;;
31716;SDS011;18301;51.076;17.046;2023-05-10T17:07:24;4.40;;;2.58;;
31716;SDS011;18301;51.076;17.046;2023-05-10T17:12:26;3.65;;;2.35;;
31716;SDS011;18301;51.076;17.046;2023-05-10T17:17:28;3.88;;;2.60;;
31716;SDS011;18301;51.076;17.046;2023-05-10T17:22:30;3.75;;;2.50;;
31716;SDS011;18301;51.076;17.046;2023-05-10T17:27:31;3.38;;;2.63;;
31716;SDS011;18301;51.076;17.046;2023-05-10T17:32:33;6.35;;;2.83;;
31716;SDS011;18301;51.076;17.046;2023-05-10T17:37:34;3.70;;;2.45;;
31716;SDS011;18301;51.076;17.046;2023-05-10T17:42:36;4.15;;;2.53;;
31716;SDS011;18301;51.076;17.046;2023-05-10T17:47:37;5.18;;;2.90;;
31716;SDS011;18301;51.076;17.046;2023-05-10T17:52:39;4.32;;;3.00;;
31716;SDS011;18301;51.076;17.046;2023-05-10T17:57:40;6.32;;;3.25;;
31716;SDS011;18301;51.076;17.046;2023-05-10T18:02:41;5.07;;;3.08;;
31716;SDS011;18301;51.076;17.046;2023-05-10T18:07:43;3.88;;;2.92;;
31716;SDS011;18301;51.076;17.046;2023-05-10T18:12:44;5.03;;;3.78;;
31716;SDS011;18301;51.076;17.046;2023-05-10T18:17:47;6.05;;;4.05;;
31716;SDS011;18301;51.076;17.046;2023-05-10T18:22:49;7.20;;;3.85;;
31716;SDS011;18301;51.076;17.046;2023-05-10T18:27:51;5.10;;;3.63;;
31716;SDS011;18301;51.076;17.046;2023-05-10T18:32:52;6.25;;;4.22;;
31716;SDS011;18301;51.076;17.046;2023-05-10T18:37:55;6.10;;;3.95;;
31716;SDS011;18301;51.076;17.046;2023-05-10T18:42:56;6.65;;;4.30;;
31716;SDS011;18301;51.076;17.046;2023-05-10T18:47:58;6.93;;;4.05;;
31716;SDS011;18301;51.076;17.046;2023-05-10T18:52:59;7.47;;;4.25;;
31716;SDS011;18301;51.076;17.046;2023-05-10T18:58:01;8.05;;;5.20;;
31716;SDS011;18301;51.076;17.046;2023-05-10T19:03:02;12.95;;;6.05;;
31716;SDS011;18301;51.076;17.046;2023-05-10T19:08:04;9.40;;;5.50;;
31716;SDS011;18301;51.076;17.046;2023-05-10T19:13:05;11.88;;;6.22;;
31716;SDS011;18301;51.076;17.046;2023-05-10T19:18:07;9.43;;;5.60;;
31716;SDS011;18301;51.076;17.046;2023-05-10T19:23:09;10.60;;;5.90;;
31716;SDS011;18301;51.076;17.046;2023-05-10T19:28:11;8.07;;;5.28;;
31716;SDS011;18301;51.076;17.046;2023-05-10T19:33:12;11.52;;;5.97;;
31716;SDS011;18301;51.076;17.046;2023-05-10T19:38:14;8.90;;;5.80;;
31716;SDS011;18301;51.076;17.046;2023-05-10T19:43:16;8.75;;;5.88;;
31716;SDS011;18301;51.076;17.046;2023-05-10T19:48:17;12.50;;;6.82;;
31716;SDS011;18301;51.076;17.046;2023-05-10T19:53:19;11.30;;;6.75;;
31716;SDS011;18301;51.076;17.046;2023-05-10T19:58:21;9.68;;;6.55;;
31716;SDS011;18301;51.076;17.046;2023-05-10T20:03:23;10.15;;;6.40;;
31716;SDS011;18301;51.076;17.046;2023-05-10T20:08:25;11.05;;;6.88;;
31716;SDS011;18301;51.076;17.046;2023-05-10T20:13:26;11.48;;;7.25;;
31716;SDS011;18301;51.076;17.046;2023-05-10T20:18:28;11.43;;;7.07;;
31716;SDS011;18301;51.076;17.046;2023-05-10T20:23:30;13.77;;;7.13;;
31716;SDS011;18301;51.076;17.046;2023-05-10T20:28:31;12.20;;;6.75;;
31716;SDS011;18301;51.076;17.046;2023-05-10T20:33:33;10.57;;;6.28;;
31716;SDS011;18301;51.076;17.046;2023-05-10T20:38:34;7.95;;;5.75;;
31716;SDS011;18301;51.076;17.046;2023-05-10T20:43:37;8.20;;;5.75;;
31716;SDS011;18301;51.076;17.046;2023-05-10T20:48:38;9.85;;;5.50;;
31716;SDS011;18301;51.076;17.046;2023-05-10T20:53:40;8.05;;;5.72;;
31716;SDS011;18301;51.076;17.046;2023-05-10T20:58:42;9.90;;;5.90;;
31716;SDS011;18301;51.076;17.046;2023-05-10T21:03:43;8.75;;;5.70;;
31716;SDS011;18301;51.076;17.046;2023-05-10T21:08:44;10.52;;;5.78;;
31716;SDS011;18301;51.076;17.046;2023-05-10T21:13:46;10.20;;;5.85;;
31716;SDS011;18301;51.076;17.046;2023-05-10T21:18:48;9.70;;;5.95;;
31716;SDS011;18301;51.076;17.046;2023-05-10T21:23:49;10.02;;;5.70;;
31716;SDS011;18301;51.076;17.046;2023-05-10T21:28:51;10.73;;;5.78;;
31716;SDS011;18301;51.076;17.046;2023-05-10T21:33:53;7.03;;;5.47;;
31716;SDS011;18301;51.076;17.046;2023-05-10T21:38:54;7.28;;;5.45;;
31716;SDS011;18301;51.076;17.046;2023-05-10T21:43:55;10.57;;;5.50;;
31716;SDS011;18301;51.076;17.046;2023-05-10T21:48:57;9.30;;;6.13;;
31716;SDS011;18301;51.076;17.046;2023-05-10T21:53:58;11.35;;;5.88;;
31716;SDS011;18301;51.076;17.046;2023-05-10T21:59:00;10.98;;;5.47;;
31716;SDS011;18301;51.076;17.046;2023-05-10T22:04:01;13.30;;;5.72;;
31716;SDS011;18301;51.076;17.046;2023-05-10T22:09:03;7.68;;;4.82;;
31716;SDS011;18301;51.076;17.046;2023-05-10T22:14:05;9.23;;;5.07;;
31716;SDS011;18301;51.076;17.046;2023-05-10T22:19:06;7.70;;;4.95;;
31716;SDS011;18301;51.076;17.046;2023-05-10T22:24:08;6.90;;;4.95;;
31716;SDS011;18301;51.076;17.046;2023-05-10T22:29:09;10.38;;;5.65;;
31716;SDS011;18301;51.076;17.046;2023-05-10T22:34:11;7.22;;;4.95;;
31716;SDS011;18301;51.076;17.046;2023-05-10T22:39:13;9.15;;;4.78;;
31716;SDS011;18301;51.076;17.046;2023-05-10T22:44:14;6.97;;;4.78;;
31716;SDS011;18301;51.076;17.046;2023-05-10T22:49:16;7.75;;;4.95;;
31716;SDS011;18301;51.076;17.046;2023-05-10T22:54:17;7.10;;;4.95;;
31716;SDS011;18301;51.076;17.046;2023-05-10T22:59:19;9.05;;;6.00;;
31716;SDS011;18301;51.076;17.046;2023-05-10T23:04:20;10.40;;;5.85;;
31716;SDS011;18301;51.076;17.046;2023-05-10T23:09:22;8.32;;;5.38;;
31716;SDS011;18301;51.076;17.046;2023-05-10T23:14:23;9.02;;;5.13;;
31716;SDS011;18301;51.076;17.046;2023-05-10T23:19:25;8.55;;;5.53;;
31716;SDS011;18301;51.076;17.046;2023-05-10T23:24:26;7.25;;;5.30;;
31716;SDS011;18301;51.076;17.046;2023-05-10T23:29:28;10.38;;;5.22;;
31716;SDS011;18301;51.076;17.046;2023-05-10T23:34:29;8.13;;;5.22;;
31716;SDS011;18301;51.076;17.046;2023-05-10T23:39:31;8.07;;;5.20;;
31716;SDS011;18301;51.076;17.046;2023-05-10T23:44:32;7.88;;;5.50;;
31716;SDS011;18301;51.076;17.046;2023-05-10T23:49:34;8.43;;;5.18;;
31716;SDS011;18301;51.076;17.046;2023-05-10T23:54:35;8.52;;;5.22;;
31716;SDS011;18301;51.076;17.046;2023-05-10T23:59:37;9.13;;;5.68;;
